SUR4101 SKRG-MPTO
Flight info
| Callsign | SUR4101 |
|---|---|
| Flight time | 0h 54m |
| Altitude | 40000 |
| Route | OPMEL3C OPMEL DCT SIGUN DCT ISOKO ISOKO2C |
| Aircraft | B736/M-SDE2E3FGHIRWXY/LB1 |
Departure
| Time | 2026-05-07 21:58 |
|---|---|
| Airport | Jose Maria Córdova International Airport (SKRG) |
Arrival
| Time | 2026-05-07 22:52 |
|---|---|
| Airport | Tocumen International Airport (MPTO) |
| Time | Latitude | Longitude | Altitude | Speed | Heading |
|---|---|---|---|---|---|
| 2026-05-07 21:10 | 6.17292 | -75.42770 | 7002 ft | 0 kts | 211° |
| 2026-05-07 21:43 | 6.17293 | -75.42770 | 7001 ft | 0 kts | 211° |
| 2026-05-07 21:43 | 6.17303 | -75.42763 | 7000 ft | 2 kts | 210° |
| 2026-05-07 21:43 | 6.17316 | -75.42756 | 7000 ft | 2 kts | 211° |
| 2026-05-07 21:43 | 6.17329 | -75.42748 | 7000 ft | 2 kts | 211° |
| 2026-05-07 21:44 | 6.17340 | -75.42741 | 6999 ft | 0 kts | 211° |
| 2026-05-07 21:44 | 6.17350 | -75.42738 | 6999 ft | 2 kts | 177° |
| 2026-05-07 21:44 | 6.17364 | -75.42743 | 7000 ft | 1 kts | 130° |
| 2026-05-07 21:44 | 6.17367 | -75.42748 | 7000 ft | 1 kts | 115° |
| 2026-05-07 21:45 | 6.17369 | -75.42751 | 7000 ft | 0 kts | 120° |
| 2026-05-07 21:48 | 6.17363 | -75.42742 | 6999 ft | 2 kts | 120° |
| 2026-05-07 21:48 | 6.17348 | -75.42715 | 6997 ft | 5 kts | 120° |
| 2026-05-07 21:48 | 6.17321 | -75.42677 | 6996 ft | 7 kts | 129° |
| 2026-05-07 21:48 | 6.17281 | -75.42634 | 6994 ft | 8 kts | 147° |
| 2026-05-07 21:49 | 6.17221 | -75.42618 | 6994 ft | 8 kts | 166° |
| 2026-05-07 21:49 | 6.17188 | -75.42570 | 6992 ft | 9 kts | 93° |
| 2026-05-07 21:49 | 6.17168 | -75.42501 | 6989 ft | 11 kts | 146° |
| 2026-05-07 21:49 | 6.17085 | -75.42487 | 6987 ft | 12 kts | 178° |
| 2026-05-07 21:50 | 6.16996 | -75.42485 | 6985 ft | 13 kts | 178° |
| 2026-05-07 21:50 | 6.16898 | -75.42484 | 6982 ft | 15 kts | 181° |
| 2026-05-07 21:50 | 6.16784 | -75.42486 | 6977 ft | 17 kts | 181° |
| 2026-05-07 21:50 | 6.16662 | -75.42486 | 6970 ft | 18 kts | 179° |
| 2026-05-07 21:51 | 6.16533 | -75.42484 | 6968 ft | 18 kts | 179° |
| 2026-05-07 21:51 | 6.16413 | -75.42483 | 6966 ft | 16 kts | 180° |
| 2026-05-07 21:51 | 6.16295 | -75.42483 | 6964 ft | 16 kts | 180° |
| 2026-05-07 21:51 | 6.16179 | -75.42482 | 6961 ft | 17 kts | 179° |
| 2026-05-07 21:52 | 6.16061 | -75.42481 | 6960 ft | 16 kts | 179° |
| 2026-05-07 21:52 | 6.15946 | -75.42481 | 6958 ft | 16 kts | 180° |
| 2026-05-07 21:52 | 6.15829 | -75.42480 | 6955 ft | 17 kts | 179° |
| 2026-05-07 21:52 | 6.15717 | -75.42479 | 6956 ft | 14 kts | 180° |
| 2026-05-07 21:53 | 6.15619 | -75.42478 | 6956 ft | 13 kts | 179° |
| 2026-05-07 21:53 | 6.15520 | -75.42478 | 6954 ft | 14 kts | 180° |
| 2026-05-07 21:53 | 6.15419 | -75.42477 | 6954 ft | 13 kts | 179° |
| 2026-05-07 21:53 | 6.15326 | -75.42477 | 6954 ft | 13 kts | 179° |
| 2026-05-07 21:54 | 6.15232 | -75.42475 | 6952 ft | 13 kts | 179° |
| 2026-05-07 21:54 | 6.15133 | -75.42474 | 6950 ft | 14 kts | 179° |
| 2026-05-07 21:54 | 6.15029 | -75.42474 | 6948 ft | 15 kts | 181° |
| 2026-05-07 21:54 | 6.14912 | -75.42476 | 6943 ft | 18 kts | 185° |
| 2026-05-07 21:55 | 6.14815 | -75.42439 | 6938 ft | 13 kts | 94° |
| 2026-05-07 21:55 | 6.14816 | -75.42425 | 6938 ft | 0 kts | 83° |
| 2026-05-07 21:56 | 6.14816 | -75.42420 | 6938 ft | 2 kts | 83° |
| 2026-05-07 21:56 | 6.14846 | -75.42374 | 6939 ft | 13 kts | 35° |
| 2026-05-07 21:56 | 6.14924 | -75.42331 | 6942 ft | 11 kts | 26° |
| 2026-05-07 21:57 | 6.14981 | -75.42303 | 6944 ft | 7 kts | 8° |
| 2026-05-07 21:57 | 6.15034 | -75.42303 | 6946 ft | 20 kts | 0° |
| 2026-05-07 21:57 | 6.15454 | -75.42298 | 6954 ft | 98 kts | 3° |
| 2026-05-07 21:57 | 6.16387 | -75.42316 | 6963 ft | 164 kts | 0° |
| 2026-05-07 21:58 | 6.17646 | -75.42296 | 7317 ft | 196 kts | 3° |
| 2026-05-07 21:58 | 6.19079 | -75.42255 | 7836 ft | 211 kts | 3° |
| 2026-05-07 21:58 | 6.20506 | -75.42179 | 8378 ft | 200 kts | 6° |
| 2026-05-07 21:58 | 6.21863 | -75.42145 | 9200 ft | 204 kts | 358° |
| 2026-05-07 21:59 | 6.23452 | -75.42287 | 9119 ft | 248 kts | 356° |
| 2026-05-07 21:59 | 6.25342 | -75.42387 | 8751 ft | 297 kts | 359° |
| 2026-05-07 21:59 | 6.27436 | -75.42395 | 8950 ft | 292 kts | 3° |
| 2026-05-07 21:59 | 6.29528 | -75.42344 | 9736 ft | 301 kts | 1° |
| 2026-05-07 22:00 | 6.31564 | -75.42358 | 10925 ft | 296 kts | 0° |
| 2026-05-07 22:00 | 6.33645 | -75.42394 | 11802 ft | 303 kts | 1° |
| 2026-05-07 22:00 | 6.35775 | -75.42403 | 12671 ft | 309 kts | 2° |
| 2026-05-07 22:00 | 6.37907 | -75.42387 | 13638 ft | 310 kts | 3° |
| 2026-05-07 22:01 | 6.40090 | -75.42426 | 14476 ft | 317 kts | 357° |
| 2026-05-07 22:01 | 6.42264 | -75.42955 | 15283 ft | 327 kts | 337° |
| 2026-05-07 22:01 | 6.44134 | -75.44282 | 15765 ft | 336 kts | 315° |
| 2026-05-07 22:01 | 6.45509 | -75.46222 | 15938 ft | 340 kts | 302° |
| 2026-05-07 22:02 | 6.46676 | -75.48302 | 15927 ft | 338 kts | 300° |
| 2026-05-07 22:02 | 6.47790 | -75.50353 | 15909 ft | 336 kts | 300° |
| 2026-05-07 22:02 | 6.48940 | -75.52432 | 15893 ft | 337 kts | 301° |
| 2026-05-07 22:02 | 6.50103 | -75.54482 | 16073 ft | 335 kts | 301° |
| 2026-05-07 22:03 | 6.51267 | -75.56504 | 16166 ft | 340 kts | 302° |
| 2026-05-07 22:03 | 6.52478 | -75.58595 | 16501 ft | 351 kts | 301° |
| 2026-05-07 22:03 | 6.53683 | -75.60675 | 17544 ft | 345 kts | 302° |
| 2026-05-07 22:03 | 6.54888 | -75.62758 | 18360 ft | 348 kts | 301° |
| 2026-05-07 22:04 | 6.56114 | -75.64875 | 19100 ft | 353 kts | 302° |
| 2026-05-07 22:04 | 6.57354 | -75.67020 | 19857 ft | 357 kts | 302° |
| 2026-05-07 22:04 | 6.58607 | -75.69183 | 20606 ft | 360 kts | 302° |
| 2026-05-07 22:04 | 6.59870 | -75.71364 | 21333 ft | 364 kts | 302° |
| 2026-05-07 22:05 | 6.61130 | -75.73541 | 22018 ft | 367 kts | 302° |
| 2026-05-07 22:05 | 6.62418 | -75.75768 | 22698 ft | 371 kts | 302° |
| 2026-05-07 22:05 | 6.63723 | -75.78024 | 23375 ft | 375 kts | 301° |
| 2026-05-07 22:05 | 6.65038 | -75.80299 | 24010 ft | 380 kts | 301° |
| 2026-05-07 22:06 | 6.66367 | -75.82599 | 24673 ft | 384 kts | 301° |
| 2026-05-07 22:06 | 6.67711 | -75.84925 | 25278 ft | 388 kts | 301° |
| 2026-05-07 22:06 | 6.69071 | -75.87281 | 25903 ft | 392 kts | 301° |
| 2026-05-07 22:06 | 6.70460 | -75.89685 | 26544 ft | 395 kts | 300° |
| 2026-05-07 22:07 | 6.71825 | -75.92049 | 27151 ft | 398 kts | 300° |
| 2026-05-07 22:07 | 6.73182 | -75.94527 | 27691 ft | 402 kts | 296° |
| 2026-05-07 22:07 | 6.74321 | -75.97085 | 28277 ft | 405 kts | 292° |
| 2026-05-07 22:07 | 6.75332 | -75.99739 | 28846 ft | 408 kts | 289° |
| 2026-05-07 22:08 | 6.76265 | -76.02397 | 29389 ft | 410 kts | 289° |
| 2026-05-07 22:08 | 6.77198 | -76.05139 | 30002 ft | 411 kts | 289° |
| 2026-05-07 22:08 | 6.78108 | -76.07835 | 30532 ft | 413 kts | 289° |
| 2026-05-07 22:08 | 6.79049 | -76.10609 | 31050 ft | 416 kts | 289° |
| 2026-05-07 22:09 | 6.79969 | -76.13308 | 31678 ft | 414 kts | 289° |
| 2026-05-07 22:09 | 6.80917 | -76.16075 | 32156 ft | 417 kts | 289° |
| 2026-05-07 22:09 | 6.81855 | -76.18803 | 32590 ft | 420 kts | 289° |
| 2026-05-07 22:09 | 6.82812 | -76.21577 | 33085 ft | 422 kts | 289° |
| 2026-05-07 22:10 | 6.83780 | -76.24374 | 33581 ft | 425 kts | 289° |
| 2026-05-07 22:10 | 6.84754 | -76.27187 | 34091 ft | 427 kts | 289° |
| 2026-05-07 22:10 | 6.85738 | -76.30029 | 34507 ft | 431 kts | 289° |
| 2026-05-07 22:10 | 6.86714 | -76.32845 | 34995 ft | 432 kts | 289° |
| 2026-05-07 22:11 | 6.87707 | -76.35709 | 35446 ft | 435 kts | 289° |
| 2026-05-07 22:11 | 6.88708 | -76.38601 | 35886 ft | 437 kts | 289° |
| 2026-05-07 22:11 | 6.89712 | -76.41501 | 36261 ft | 441 kts | 289° |
| 2026-05-07 22:11 | 6.90715 | -76.44398 | 36736 ft | 442 kts | 289° |
| 2026-05-07 22:12 | 6.91721 | -76.47305 | 37355 ft | 439 kts | 289° |
| 2026-05-07 22:12 | 6.92730 | -76.50220 | 37933 ft | 437 kts | 290° |
| 2026-05-07 22:12 | 6.94754 | -76.56072 | 38018 ft | 441 kts | 290° |
| 2026-05-07 22:13 | 6.96781 | -76.61937 | 37997 ft | 438 kts | 289° |
| 2026-05-07 22:13 | 6.98812 | -76.67815 | 37952 ft | 441 kts | 289° |
| 2026-05-07 22:14 | 7.00839 | -76.73684 | 37906 ft | 440 kts | 289° |
| 2026-05-07 22:14 | 7.02853 | -76.79520 | 37866 ft | 440 kts | 289° |
| 2026-05-07 22:15 | 7.04863 | -76.85349 | 37863 ft | 440 kts | 289° |
| 2026-05-07 22:15 | 7.06863 | -76.91151 | 37850 ft | 440 kts | 289° |
| 2026-05-07 22:16 | 7.08874 | -76.96984 | 37843 ft | 442 kts | 289° |
| 2026-05-07 22:16 | 7.10886 | -77.02819 | 37825 ft | 444 kts | 289° |
| 2026-05-07 22:17 | 7.12909 | -77.08690 | 37827 ft | 442 kts | 289° |
| 2026-05-07 22:17 | 7.14913 | -77.14513 | 37832 ft | 442 kts | 289° |
| 2026-05-07 22:18 | 7.17912 | -77.23236 | 37830 ft | 439 kts | 289° |
| 2026-05-07 22:19 | 7.19899 | -77.29028 | 37837 ft | 440 kts | 289° |
| 2026-05-07 22:19 | 7.21896 | -77.34849 | 37843 ft | 440 kts | 290° |
| 2026-05-07 22:20 | 7.23893 | -77.40667 | 37851 ft | 439 kts | 290° |
| 2026-05-07 22:20 | 7.25885 | -77.46471 | 37850 ft | 440 kts | 290° |
| 2026-05-07 22:21 | 7.27882 | -77.52293 | 37857 ft | 438 kts | 290° |
| 2026-05-07 22:21 | 7.29865 | -77.58076 | 37860 ft | 438 kts | 290° |
| 2026-05-07 22:22 | 7.31848 | -77.63864 | 37866 ft | 437 kts | 290° |
| 2026-05-07 22:22 | 7.33826 | -77.69635 | 37873 ft | 436 kts | 289° |
| 2026-05-07 22:23 | 7.35802 | -77.75402 | 37874 ft | 437 kts | 290° |
| 2026-05-07 22:23 | 7.37021 | -77.78952 | 37872 ft | 437 kts | 290° |
| 2026-05-07 22:24 | 7.39043 | -77.83853 | 37867 ft | 435 kts | 299° |
| 2026-05-07 22:24 | 7.42571 | -77.88815 | 37865 ft | 436 kts | 310° |
| 2026-05-07 22:25 | 7.46587 | -77.93420 | 37862 ft | 434 kts | 312° |
| 2026-05-07 22:25 | 7.50630 | -77.97949 | 37858 ft | 435 kts | 312° |
| 2026-05-07 22:26 | 7.54664 | -78.02523 | 37668 ft | 428 kts | 312° |
| 2026-05-07 22:26 | 7.56607 | -78.04749 | 37321 ft | 420 kts | 312° |
| 2026-05-07 22:26 | 7.58504 | -78.06933 | 36869 ft | 414 kts | 312° |
| 2026-05-07 22:26 | 7.60404 | -78.09128 | 36324 ft | 411 kts | 311° |
| 2026-05-07 22:27 | 7.62280 | -78.11298 | 35749 ft | 409 kts | 311° |
| 2026-05-07 22:27 | 7.64140 | -78.13456 | 35130 ft | 409 kts | 311° |
| 2026-05-07 22:27 | 7.66013 | -78.15629 | 34499 ft | 410 kts | 311° |
| 2026-05-07 22:27 | 7.67869 | -78.17782 | 33838 ft | 410 kts | 312° |
| 2026-05-07 22:28 | 7.69752 | -78.19968 | 33168 ft | 410 kts | 312° |
| 2026-05-07 22:28 | 7.71603 | -78.22118 | 32556 ft | 409 kts | 312° |
| 2026-05-07 22:28 | 7.73482 | -78.24302 | 32113 ft | 414 kts | 312° |
| 2026-05-07 22:28 | 7.75422 | -78.26556 | 31588 ft | 435 kts | 312° |
| 2026-05-07 22:29 | 7.77406 | -78.28858 | 30999 ft | 442 kts | 312° |
| 2026-05-07 22:29 | 7.79413 | -78.31190 | 30410 ft | 438 kts | 312° |
| 2026-05-07 22:29 | 7.81411 | -78.33514 | 29822 ft | 434 kts | 312° |
| 2026-05-07 22:29 | 7.83377 | -78.35801 | 29230 ft | 431 kts | 312° |
| 2026-05-07 22:30 | 7.85325 | -78.38068 | 28642 ft | 427 kts | 312° |
| 2026-05-07 22:30 | 7.87258 | -78.40318 | 28072 ft | 424 kts | 313° |
| 2026-05-07 22:30 | 7.89176 | -78.42552 | 27501 ft | 421 kts | 313° |
| 2026-05-07 22:30 | 7.91108 | -78.44801 | 26923 ft | 418 kts | 313° |
| 2026-05-07 22:31 | 7.92996 | -78.46999 | 26357 ft | 415 kts | 313° |
| 2026-05-07 22:31 | 7.94879 | -78.49191 | 25789 ft | 413 kts | 313° |
| 2026-05-07 22:31 | 7.96744 | -78.51364 | 25228 ft | 410 kts | 313° |
| 2026-05-07 22:31 | 7.98602 | -78.53529 | 24672 ft | 408 kts | 313° |
| 2026-05-07 22:32 | 8.00447 | -78.55677 | 24119 ft | 405 kts | 313° |
| 2026-05-07 22:32 | 8.02279 | -78.57810 | 23569 ft | 402 kts | 314° |
| 2026-05-07 22:32 | 8.04112 | -78.59946 | 23024 ft | 400 kts | 314° |
| 2026-05-07 22:32 | 8.05925 | -78.62059 | 22479 ft | 398 kts | 314° |
| 2026-05-07 22:33 | 8.07725 | -78.64156 | 21945 ft | 395 kts | 314° |
| 2026-05-07 22:33 | 8.09521 | -78.66251 | 21416 ft | 393 kts | 314° |
| 2026-05-07 22:33 | 8.11299 | -78.68323 | 20880 ft | 391 kts | 314° |
| 2026-05-07 22:33 | 8.12690 | -78.69946 | 20456 ft | 390 kts | 314° |
| 2026-05-07 22:34 | 8.14453 | -78.72002 | 19916 ft | 388 kts | 314° |
| 2026-05-07 22:34 | 8.16213 | -78.74054 | 19375 ft | 386 kts | 313° |
| 2026-05-07 22:34 | 8.17959 | -78.76090 | 18839 ft | 384 kts | 313° |
| 2026-05-07 22:34 | 8.19715 | -78.78140 | 18306 ft | 381 kts | 313° |
| 2026-05-07 22:35 | 8.21440 | -78.80155 | 17882 ft | 375 kts | 313° |
| 2026-05-07 22:35 | 8.23100 | -78.82097 | 17718 ft | 362 kts | 313° |
| 2026-05-07 22:35 | 8.24785 | -78.83922 | 17566 ft | 348 kts | 317° |
| 2026-05-07 22:35 | 8.26544 | -78.85624 | 17094 ft | 347 kts | 320° |
| 2026-05-07 22:36 | 8.28332 | -78.87265 | 16580 ft | 347 kts | 321° |
| 2026-05-07 22:36 | 8.30123 | -78.88899 | 16120 ft | 346 kts | 321° |
| 2026-05-07 22:36 | 8.31899 | -78.90537 | 15670 ft | 344 kts | 320° |
| 2026-05-07 22:36 | 8.33629 | -78.92152 | 15228 ft | 342 kts | 320° |
| 2026-05-07 22:37 | 8.35363 | -78.93786 | 14783 ft | 340 kts | 320° |
| 2026-05-07 22:37 | 8.37087 | -78.95417 | 14344 ft | 338 kts | 320° |
| 2026-05-07 22:37 | 8.38798 | -78.97038 | 13914 ft | 336 kts | 320° |
| 2026-05-07 22:37 | 8.40517 | -78.98668 | 13467 ft | 334 kts | 320° |
| 2026-05-07 22:38 | 8.42206 | -79.00269 | 13035 ft | 332 kts | 320° |
| 2026-05-07 22:38 | 8.43868 | -79.01846 | 12603 ft | 331 kts | 320° |
| 2026-05-07 22:38 | 8.45548 | -79.03437 | 12170 ft | 329 kts | 320° |
| 2026-05-07 22:38 | 8.47214 | -79.05016 | 11742 ft | 327 kts | 319° |
| 2026-05-07 22:39 | 8.48871 | -79.06587 | 11318 ft | 324 kts | 319° |
| 2026-05-07 22:39 | 8.50497 | -79.08128 | 10903 ft | 322 kts | 319° |
| 2026-05-07 22:39 | 8.52138 | -79.09684 | 10482 ft | 320 kts | 319° |
| 2026-05-07 22:39 | 8.53762 | -79.11224 | 10086 ft | 316 kts | 319° |
| 2026-05-07 22:40 | 8.55353 | -79.12734 | 9873 ft | 307 kts | 319° |
| 2026-05-07 22:40 | 8.56886 | -79.14191 | 9505 ft | 304 kts | 319° |
| 2026-05-07 22:40 | 8.58435 | -79.15659 | 9079 ft | 303 kts | 319° |
| 2026-05-07 22:40 | 8.59943 | -79.17090 | 8718 ft | 294 kts | 319° |
| 2026-05-07 22:41 | 8.61415 | -79.18489 | 8354 ft | 285 kts | 319° |
| 2026-05-07 22:41 | 8.62850 | -79.19852 | 7996 ft | 277 kts | 319° |
| 2026-05-07 22:41 | 8.64242 | -79.21175 | 7655 ft | 270 kts | 319° |
| 2026-05-07 22:41 | 8.65607 | -79.22471 | 7321 ft | 268 kts | 319° |
| 2026-05-07 22:42 | 8.66950 | -79.23743 | 6985 ft | 267 kts | 319° |
| 2026-05-07 22:42 | 8.68234 | -79.25093 | 6657 ft | 266 kts | 313° |
| 2026-05-07 22:42 | 8.69428 | -79.26531 | 6306 ft | 266 kts | 311° |
| 2026-05-07 22:42 | 8.70588 | -79.27987 | 5962 ft | 265 kts | 311° |
| 2026-05-07 22:43 | 8.71754 | -79.29446 | 5598 ft | 264 kts | 311° |
| 2026-05-07 22:43 | 8.72903 | -79.30866 | 5265 ft | 262 kts | 311° |
| 2026-05-07 22:43 | 8.74063 | -79.32288 | 4952 ft | 260 kts | 312° |
| 2026-05-07 22:43 | 8.75212 | -79.33694 | 4703 ft | 256 kts | 312° |
| 2026-05-07 22:44 | 8.76322 | -79.35061 | 4598 ft | 244 kts | 311° |
| 2026-05-07 22:44 | 8.77371 | -79.36357 | 4521 ft | 233 kts | 312° |
| 2026-05-07 22:44 | 8.78376 | -79.37598 | 4461 ft | 222 kts | 311° |
| 2026-05-07 22:44 | 8.79326 | -79.38772 | 4403 ft | 212 kts | 312° |
| 2026-05-07 22:45 | 8.80244 | -79.39907 | 4341 ft | 200 kts | 313° |
| 2026-05-07 22:45 | 8.81100 | -79.40955 | 4268 ft | 190 kts | 313° |
| 2026-05-07 22:45 | 8.81943 | -79.41981 | 4088 ft | 188 kts | 313° |
| 2026-05-07 22:45 | 8.82769 | -79.42986 | 3873 ft | 187 kts | 313° |
| 2026-05-07 22:46 | 8.83602 | -79.44000 | 3671 ft | 185 kts | 313° |
| 2026-05-07 22:46 | 8.84425 | -79.45001 | 3468 ft | 183 kts | 313° |
| 2026-05-07 22:46 | 8.85231 | -79.45982 | 3272 ft | 182 kts | 313° |
| 2026-05-07 22:46 | 8.86118 | -79.46872 | 3118 ft | 174 kts | 330° |
| 2026-05-07 22:47 | 8.87247 | -79.47195 | 3082 ft | 171 kts | 1° |
| 2026-05-07 22:47 | 8.88431 | -79.46983 | 2921 ft | 172 kts | 18° |
| 2026-05-07 22:47 | 8.89533 | -79.46576 | 2765 ft | 165 kts | 20° |
| 2026-05-07 22:47 | 8.90602 | -79.46178 | 2631 ft | 156 kts | 19° |
| 2026-05-07 22:48 | 8.91587 | -79.45834 | 2500 ft | 146 kts | 18° |
| 2026-05-07 22:48 | 8.92556 | -79.45490 | 2381 ft | 145 kts | 19° |
| 2026-05-07 22:48 | 8.93514 | -79.45146 | 2256 ft | 143 kts | 19° |
| 2026-05-07 22:48 | 8.94425 | -79.44823 | 2132 ft | 136 kts | 18° |
| 2026-05-07 22:49 | 8.95319 | -79.44504 | 2023 ft | 132 kts | 18° |
| 2026-05-07 22:49 | 8.96158 | -79.44195 | 1906 ft | 123 kts | 22° |
| 2026-05-07 22:49 | 8.96920 | -79.43762 | 1764 ft | 125 kts | 29° |
| 2026-05-07 22:49 | 8.97652 | -79.43326 | 1607 ft | 120 kts | 26° |
| 2026-05-07 22:50 | 8.98394 | -79.42911 | 1458 ft | 121 kts | 26° |
| 2026-05-07 22:50 | 8.99140 | -79.42484 | 1306 ft | 123 kts | 27° |
| 2026-05-07 22:50 | 8.99881 | -79.42061 | 1152 ft | 122 kts | 26° |
| 2026-05-07 22:50 | 9.00625 | -79.41640 | 995 ft | 123 kts | 26° |
| 2026-05-07 22:51 | 9.01378 | -79.41212 | 845 ft | 122 kts | 27° |
| 2026-05-07 22:51 | 9.02110 | -79.40787 | 734 ft | 119 kts | 26° |
| 2026-05-07 22:51 | 9.02824 | -79.40362 | 574 ft | 120 kts | 26° |
| 2026-05-07 22:51 | 9.03570 | -79.39945 | 413 ft | 123 kts | 26° |
| 2026-05-07 22:52 | 9.04326 | -79.39513 | 208 ft | 127 kts | 26° |
| 2026-05-07 22:52 | 9.05104 | -79.39063 | 41 ft | 124 kts | 26° |
| 2026-05-07 22:52 | 9.05760 | -79.38712 | 40 ft | 79 kts | 33° |
| 2026-05-07 22:52 | 9.06100 | -79.38512 | 46 ft | 35 kts | 30° |
| 2026-05-07 22:53 | 9.06302 | -79.38402 | 48 ft | 32 kts | 22° |
| 2026-05-07 22:53 | 9.06482 | -79.38386 | 53 ft | 22 kts | 0° |
| 2026-05-07 22:53 | 9.06578 | -79.38387 | 55 ft | 5 kts | 359° |
| 2026-05-07 22:53 | 9.06609 | -79.38390 | 55 ft | 3 kts | 350° |
| 2026-05-07 22:54 | 9.06630 | -79.38399 | 56 ft | 2 kts | 327° |
| 2026-05-07 22:54 | 9.06643 | -79.38409 | 57 ft | 2 kts | 311° |
| 2026-05-07 22:54 | 9.06650 | -79.38422 | 57 ft | 1 kts | 295° |
| 2026-05-07 22:54 | 9.06654 | -79.38433 | 57 ft | 1 kts | 279° |
| 2026-05-07 22:55 | 9.06654 | -79.38445 | 57 ft | 1 kts | 269° |
| 2026-05-07 22:55 | 9.06652 | -79.38459 | 58 ft | 2 kts | 259° |
| 2026-05-07 22:55 | 9.06647 | -79.38474 | 58 ft | 2 kts | 240° |
| 2026-05-07 22:55 | 9.06632 | -79.38490 | 58 ft | 3 kts | 220° |
| 2026-05-07 22:56 | 9.06614 | -79.38511 | 58 ft | 4 kts | 240° |
| 2026-05-07 22:56 | 9.06625 | -79.38535 | 58 ft | 4 kts | 317° |
| 2026-05-07 22:56 | 9.06642 | -79.38557 | 58 ft | 3 kts | 301° |
| 2026-05-07 22:56 | 9.06655 | -79.38581 | 58 ft | 3 kts | 297° |
| 2026-05-07 22:57 | 9.06668 | -79.38605 | 59 ft | 3 kts | 301° |
| 2026-05-07 22:57 | 9.06671 | -79.38611 | 59 ft | 0 kts | 301° |